Time,TemperatureF,DewpointF,PressureIn,WindDirection,WindDirectionDegrees,WindSpeedMPH,WindSpeedGustMPH,Humidity,HourlyPrecipIn,Conditions,Clouds,dailyrainin,SoftwareType,DateUTC
2013-05-08 00:00:00,63.1,48.1,29.88,SE,141,0.0,0.0,58,0.00,,,0.00,Wunderground v.1.15,2013-05-08 05:00:00,
2013-05-08 00:10:00,62.7,48.6,29.88,SE,141,0.0,0.0,60,0.00,,,0.00,Wunderground v.1.15,2013-05-08 05:10:00,
2013-05-08 00:20:00,62.4,48.3,29.88,SE,141,0.0,0.0,60,0.00,,,0.00,Wunderground v.1.15,2013-05-08 05:20:00,
2013-05-08 00:30:00,62.1,48.5,29.88,SE,141,0.0,0.0,61,0.00,,,0.00,Wunderground v.1.15,2013-05-08 05:30:00,
2013-05-08 00:40:00,61.8,48.6,29.88,SE,141,0.0,0.0,62,0.00,,,0.00,Wunderground v.1.15,2013-05-08 05:40:00,
2013-05-08 00:50:00,61.6,48.4,29.88,SE,141,0.0,0.0,62,0.00,,,0.00,Wunderground v.1.15,2013-05-08 05:50:00,
2013-05-08 01:00:00,61.5,48.8,29.89,SE,141,0.0,0.0,63,0.00,,,0.00,Wunderground v.1.15,2013-05-08 06:00:00,
2013-05-08 01:10:00,61.2,48.5,29.89,SE,141,0.0,0.0,63,0.00,,,0.00,Wunderground v.1.15,2013-05-08 06:10:00,
2013-05-08 01:20:00,60.9,48.6,29.89,SE,141,0.0,0.0,64,0.00,,,0.00,Wunderground v.1.15,2013-05-08 06:20:00,
2013-05-08 01:30:00,60.7,48.9,29.88,SE,141,0.0,0.0,65,0.00,,,0.00,Wunderground v.1.15,2013-05-08 06:30:00,
2013-05-08 01:40:00,60.5,48.7,29.88,SE,141,0.0,0.0,65,0.00,,,0.00,Wunderground v.1.15,2013-05-08 06:40:00,
2013-05-08 01:50:00,60.2,48.8,29.88,SE,141,0.0,0.0,66,0.00,,,0.00,Wunderground v.1.15,2013-05-08 06:50:00,
2013-05-08 02:00:00,60.1,49.1,29.88,SE,141,0.0,0.0,67,0.00,,,0.00,Wunderground v.1.15,2013-05-08 07:00:00,
2013-05-08 02:10:00,59.8,49.2,29.88,SE,141,0.0,0.0,68,0.00,,,0.00,Wunderground v.1.15,2013-05-08 07:10:00,
2013-05-08 02:20:00,59.3,48.7,29.87,SE,141,0.0,0.0,68,0.00,,,0.00,Wunderground v.1.15,2013-05-08 07:20:00,
2013-05-08 02:30:00,59.0,48.4,29.87,SE,141,0.0,0.0,68,0.00,,,0.00,Wunderground v.1.15,2013-05-08 07:30:00,
2013-05-08 02:40:00,58.7,48.9,29.87,SE,141,0.0,0.0,70,0.00,,,0.00,Wunderground v.1.15,2013-05-08 07:40:00,
2013-05-08 02:50:00,58.4,49.0,29.87,SE,141,0.0,0.0,71,0.00,,,0.00,Wunderground v.1.15,2013-05-08 07:50:00,
2013-05-08 03:00:00,58.1,49.1,29.87,SE,141,0.0,0.0,72,0.00,,,0.00,Wunderground v.1.15,2013-05-08 08:00:00,
2013-05-08 03:10:00,57.8,49.2,29.87,SE,141,0.0,0.0,73,0.00,,,0.00,Wunderground v.1.15,2013-05-08 08:10:00,
2013-05-08 03:20:00,57.5,48.9,29.87,SE,141,0.0,0.0,73,0.00,,,0.00,Wunderground v.1.15,2013-05-08 08:20:00,
2013-05-08 03:30:00,57.2,49.0,29.87,SE,141,0.0,0.0,74,0.00,,,0.00,Wunderground v.1.15,2013-05-08 08:30:00,
2013-05-08 03:40:00,56.9,48.7,29.87,SE,141,0.0,0.0,74,0.00,,,0.00,Wunderground v.1.15,2013-05-08 08:40:00,
2013-05-08 03:50:00,56.7,48.5,29.87,SE,141,0.0,0.0,74,0.00,,,0.00,Wunderground v.1.15,2013-05-08 08:50:00,
2013-05-08 04:00:00,56.6,48.8,29.87,SE,141,0.0,0.0,75,0.00,,,0.00,Wunderground v.1.15,2013-05-08 09:00:00,
2013-05-08 04:10:00,56.5,48.7,29.87,SE,141,0.0,0.0,75,0.00,,,0.00,Wunderground v.1.15,2013-05-08 09:10:00,
2013-05-08 04:20:00,56.5,48.7,29.87,SE,141,0.0,0.0,75,0.00,,,0.00,Wunderground v.1.15,2013-05-08 09:20:00,
2013-05-08 04:30:00,56.3,48.5,29.87,SE,141,0.0,0.0,75,0.00,,,0.00,Wunderground v.1.15,2013-05-08 09:30:00,
2013-05-08 04:40:00,56.3,48.8,29.87,SE,141,0.0,0.0,76,0.00,,,0.00,Wunderground v.1.15,2013-05-08 09:40:00,
2013-05-08 04:50:00,56.2,48.7,29.87,SE,141,0.0,0.0,76,0.00,,,0.00,Wunderground v.1.15,2013-05-08 09:50:00,
2013-05-08 05:00:00,56.0,48.5,29.87,SE,141,0.0,0.0,76,0.00,,,0.00,Wunderground v.1.15,2013-05-08 10:00:00,
2013-05-08 05:10:00,55.9,48.4,29.87,SE,141,0.0,0.0,76,0.00,,,0.00,Wunderground v.1.15,2013-05-08 10:10:00,
2013-05-08 05:20:00,55.7,48.2,29.87,SE,141,0.0,0.0,76,0.00,,,0.00,Wunderground v.1.15,2013-05-08 10:20:00,
2013-05-08 05:30:00,55.7,48.6,29.88,SE,141,0.0,0.0,77,0.00,,,0.00,Wunderground v.1.15,2013-05-08 10:30:00,
2013-05-08 05:40:00,55.6,48.5,29.88,SE,141,0.0,0.0,77,0.00,,,0.00,Wunderground v.1.15,2013-05-08 10:40:00,
2013-05-08 05:50:00,55.6,48.5,29.88,SE,141,0.0,0.0,77,0.00,,,0.00,Wunderground v.1.15,2013-05-08 10:50:00,
2013-05-08 06:00:00,55.4,48.7,29.88,SE,141,0.0,0.0,78,0.00,,,0.00,Wunderground v.1.15,2013-05-08 11:00:00,
2013-05-08 06:10:00,55.4,48.7,29.88,SE,141,0.0,0.0,78,0.00,,,0.00,Wunderground v.1.15,2013-05-08 11:10:00,
2013-05-08 06:20:00,55.3,48.6,29.88,SE,141,0.0,0.0,78,0.00,,,0.00,Wunderground v.1.15,2013-05-08 11:20:00,
2013-05-08 06:30:00,55.3,48.6,29.88,SE,141,0.0,0.0,78,0.00,,,0.00,Wunderground v.1.15,2013-05-08 11:30:00,
2013-05-08 06:40:00,55.3,48.9,29.88,SE,141,0.0,0.0,79,0.00,,,0.00,Wunderground v.1.15,2013-05-08 11:40:00,
2013-05-08 06:50:00,55.3,48.9,29.89,SE,141,0.0,0.0,79,0.00,,,0.00,Wunderground v.1.15,2013-05-08 11:50:00,
2013-05-08 07:00:00,55.4,49.0,29.89,SE,141,0.0,0.0,79,0.00,,,0.00,Wunderground v.1.15,2013-05-08 12:00:00,
2013-05-08 07:10:00,55.7,49.3,29.89,SE,141,0.0,0.0,79,0.00,,,0.00,Wunderground v.1.15,2013-05-08 12:10:00,
2013-05-08 07:20:00,56.2,49.8,29.89,SE,141,0.0,0.0,79,0.00,,,0.00,Wunderground v.1.15,2013-05-08 12:20:00,
2013-05-08 07:30:00,56.6,49.8,29.89,SE,141,0.0,0.0,78,0.00,,,0.00,Wunderground v.1.15,2013-05-08 12:30:00,
2013-05-08 07:40:00,57.0,49.9,29.89,SE,141,0.0,0.0,77,0.00,,,0.00,Wunderground v.1.15,2013-05-08 12:40:00,
2013-05-08 07:50:00,57.6,50.1,29.90,SE,141,0.0,0.0,76,0.00,,,0.00,Wunderground v.1.15,2013-05-08 12:50:00,
2013-05-08 08:00:00,59.3,50.6,29.90,SE,141,0.0,0.0,73,0.00,,,0.00,Wunderground v.1.15,2013-05-08 13:00:00,
2013-05-08 08:10:00,60.5,51.0,29.90,SE,141,0.0,0.0,71,0.00,,,0.00,Wunderground v.1.15,2013-05-08 13:10:00,
2013-05-08 08:20:00,61.0,51.1,29.90,SE,141,0.0,0.0,70,0.00,,,0.00,Wunderground v.1.15,2013-05-08 13:20:00,
2013-05-08 08:30:00,62.1,51.4,29.90,SSE,152,0.0,0.0,68,0.00,,,0.00,Wunderground v.1.15,2013-05-08 13:30:00,
2013-05-08 08:40:00,63.4,51.8,29.90,SSE,154,0.0,0.0,66,0.00,,,0.00,Wunderground v.1.15,2013-05-08 13:40:00,
2013-05-08 08:50:00,64.5,52.0,29.90,South,178,0.0,0.0,64,0.00,,,0.00,Wunderground v.1.15,2013-05-08 13:50:00,
2013-05-08 09:00:00,65.8,52.9,29.91,South,178,0.0,0.0,63,0.00,,,0.00,Wunderground v.1.15,2013-05-08 14:00:00,
2013-05-08 09:10:00,66.8,54.2,29.91,SSW,197,0.0,0.0,64,0.00,,,0.00,Wunderground v.1.15,2013-05-08 14:10:00,
2013-05-08 09:20:00,67.3,52.9,29.91,SW,224,0.0,0.0,60,0.00,,,0.00,Wunderground v.1.15,2013-05-08 14:20:00,
2013-05-08 09:30:00,67.1,52.3,29.91,SSW,205,0.0,0.0,59,0.00,,,0.00,Wunderground v.1.15,2013-05-08 14:30:00,
2013-05-08 09:40:00,67.8,52.0,29.91,South,190,0.0,0.0,57,0.00,,,0.00,Wunderground v.1.15,2013-05-08 14:40:00,
2013-05-08 09:50:00,68.4,52.6,29.91,West,259,0.0,0.0,57,0.00,,,0.00,Wunderground v.1.15,2013-05-08 14:50:00,
2013-05-08 10:00:00,69.6,52.7,29.90,WSW,240,0.0,0.0,55,0.00,,,0.00,Wunderground v.1.15,2013-05-08 15:00:00,
2013-05-08 10:10:00,69.4,51.5,29.90,SSE,157,0.0,0.0,53,0.00,,,0.00,Wunderground v.1.15,2013-05-08 15:10:00,
2013-05-08 10:20:00,69.6,51.7,29.90,SSW,201,0.0,0.0,53,0.00,,,0.00,Wunderground v.1.15,2013-05-08 15:20:00,
2013-05-08 10:30:00,70.1,52.2,29.90,WSW,242,0.0,0.0,53,0.00,,,0.00,Wunderground v.1.15,2013-05-08 15:30:00,
2013-05-08 10:40:00,70.1,52.7,29.90,SSW,209,0.0,0.0,54,0.00,,,0.00,Wunderground v.1.15,2013-05-08 15:40:00,
2013-05-08 10:50:00,70.1,52.7,29.90,SW,221,0.0,0.0,54,0.00,,,0.00,Wunderground v.1.15,2013-05-08 15:50:00,
2013-05-08 11:00:00,69.4,52.0,29.90,South,188,1.0,1.0,54,0.00,,,0.00,Wunderground v.1.15,2013-05-08 16:00:00,
2013-05-08 11:10:00,69.3,52.4,29.90,WSW,245,0.0,0.0,55,0.00,,,0.00,Wunderground v.1.15,2013-05-08 16:10:00,
2013-05-08 11:20:00,68.9,52.1,29.91,WSW,237,0.0,0.0,55,0.00,,,0.00,Wunderground v.1.15,2013-05-08 16:20:00,
2013-05-08 11:30:00,69.6,52.2,29.91,West,265,1.0,1.0,54,0.00,,,0.00,Wunderground v.1.15,2013-05-08 16:30:00,
2013-05-08 11:40:00,69.6,52.7,29.91,SW,234,0.0,0.0,55,0.00,,,0.00,Wunderground v.1.15,2013-05-08 16:40:00,
2013-05-08 11:50:00,69.3,53.9,29.91,WSW,243,1.0,1.0,58,0.00,,,0.00,Wunderground v.1.15,2013-05-08 16:50:00,
2013-05-08 12:00:00,68.9,53.0,29.91,WSW,242,1.0,1.0,57,0.00,,,0.00,Wunderground v.1.15,2013-05-08 17:00:00,
2013-05-08 12:10:00,68.8,53.9,29.91,WSW,251,0.0,0.0,59,0.00,,,0.00,Wunderground v.1.15,2013-05-08 17:10:00,
2013-05-08 12:20:00,68.6,53.7,29.90,West,273,0.0,0.0,59,0.00,,,0.00,Wunderground v.1.15,2013-05-08 17:20:00,
2013-05-08 12:30:00,68.3,53.9,29.90,WSW,255,0.0,0.0,60,0.00,,,0.00,Wunderground v.1.15,2013-05-08 17:30:00,
2013-05-08 12:40:00,68.1,54.6,29.90,WSW,254,0.0,0.0,62,0.00,,,0.00,Wunderground v.1.15,2013-05-08 17:40:00,
2013-05-08 12:50:00,67.8,54.7,29.90,WSW,254,0.0,0.0,63,0.00,,,0.00,Wunderground v.1.15,2013-05-08 17:50:00,
2013-05-08 13:00:00,67.3,54.7,29.90,SSW,202,0.0,0.0,64,0.00,,,0.00,Wunderground v.1.15,2013-05-08 18:00:00,
2013-05-08 13:10:00,67.1,55.4,29.90,SE,138,0.0,0.0,66,0.00,,,0.00,Wunderground v.1.15,2013-05-08 18:10:00,
2013-05-08 13:20:00,66.3,55.8,29.90,SW,236,0.0,0.0,69,0.00,,,0.00,Wunderground v.1.15,2013-05-08 18:20:00,
2013-05-08 13:30:00,65.6,55.5,29.90,SW,224,0.0,0.0,70,0.00,,,0.00,Wunderground v.1.15,2013-05-08 18:30:00,
2013-05-08 13:40:00,65.2,55.9,29.90,WNW,291,0.0,0.0,72,0.00,,,0.00,Wunderground v.1.15,2013-05-08 18:40:00,
2013-05-08 13:50:00,64.7,56.2,29.90,SSW,207,0.0,0.0,74,0.00,,,0.00,Wunderground v.1.15,2013-05-08 18:50:00,
2013-05-08 14:00:00,63.7,56.0,29.90,West,265,0.0,0.0,76,0.00,,,0.01,Wunderground v.1.15,2013-05-08 19:00:00,
2013-05-08 14:10:00,62.9,56.6,29.90,WSW,248,0.0,0.0,80,0.06,,,0.02,Wunderground v.1.15,2013-05-08 19:10:00,
2013-05-08 14:20:00,62.7,56.8,29.90,West,259,0.0,0.0,81,0.04,,,0.03,Wunderground v.1.15,2013-05-08 19:20:00,
2013-05-08 14:30:00,62.6,57.0,29.90,West,259,0.0,0.0,82,0.14,,,0.05,Wunderground v.1.15,2013-05-08 19:30:00,
2013-05-08 14:40:00,62.3,57.1,29.90,West,259,0.0,1.0,83,0.07,,,0.06,Wunderground v.1.15,2013-05-08 19:40:00,
2013-05-08 14:50:00,61.8,57.2,29.90,West,259,0.0,0.0,85,0.04,,,0.06,Wunderground v.1.15,2013-05-08 19:50:00,
2013-05-08 15:00:00,61.5,57.3,29.90,West,259,0.0,0.0,86,0.00,,,0.06,Wunderground v.1.15,2013-05-08 20:00:00,
2013-05-08 15:10:00,61.3,57.1,29.90,West,259,0.0,0.0,86,0.00,,,0.06,Wunderground v.1.15,2013-05-08 20:10:00,
2013-05-08 15:20:00,61.2,57.3,29.89,West,259,0.0,0.0,87,0.00,,,0.06,Wunderground v.1.15,2013-05-08 20:20:00,
2013-05-08 15:30:00,61.2,57.6,29.89,West,259,0.0,0.0,88,0.00,,,0.06,Wunderground v.1.15,2013-05-08 20:30:00,
2013-05-08 15:40:00,61.6,58.9,29.89,West,259,0.0,0.0,91,0.00,,,0.06,Wunderground v.1.15,2013-05-08 20:40:00,
2013-05-08 15:50:00,62.7,60.0,29.88,West,259,0.0,0.0,91,0.00,,,0.06,Wunderground v.1.15,2013-05-08 20:50:00,
2013-05-08 16:00:00,64.2,59.9,29.87,West,259,0.0,0.0,86,0.00,,,0.06,Wunderground v.1.15,2013-05-08 21:00:00,
2013-05-08 16:10:00,64.7,58.0,29.87,West,259,0.0,0.0,79,0.00,,,0.06,Wunderground v.1.15,2013-05-08 21:10:00,
2013-05-08 16:20:00,65.2,58.5,29.86,West,259,0.0,0.0,79,0.00,,,0.06,Wunderground v.1.15,2013-05-08 21:20:00,
2013-05-08 16:30:00,65.3,58.6,29.86,West,259,0.0,0.0,79,0.00,,,0.06,Wunderground v.1.15,2013-05-08 21:30:00,
2013-05-08 16:40:00,65.6,58.6,29.86,West,259,0.0,0.0,78,0.00,,,0.06,Wunderground v.1.15,2013-05-08 21:40:00,
2013-05-08 16:50:00,65.8,58.0,29.86,West,259,0.0,0.0,76,0.00,,,0.06,Wunderground v.1.15,2013-05-08 21:50:00,
2013-05-08 17:00:00,65.8,57.3,29.86,West,259,0.0,0.0,74,0.00,,,0.06,Wunderground v.1.15,2013-05-08 22:00:00,
2013-05-08 17:10:00,66.0,57.8,29.86,West,259,0.0,0.0,75,0.00,,,0.06,Wunderground v.1.15,2013-05-08 22:10:00,
2013-05-08 17:20:00,66.1,57.9,29.85,West,259,0.0,0.0,75,0.00,,,0.06,Wunderground v.1.15,2013-05-08 22:20:00,
2013-05-08 17:30:00,66.0,57.5,29.85,West,259,0.0,0.0,74,0.00,,,0.06,Wunderground v.1.15,2013-05-08 22:30:00,
2013-05-08 17:40:00,66.1,57.9,29.85,West,259,0.0,0.0,75,0.00,,,0.06,Wunderground v.1.15,2013-05-08 22:40:00,
2013-05-08 17:50:00,66.0,58.2,29.85,West,259,0.0,0.0,76,0.00,,,0.06,Wunderground v.1.15,2013-05-08 22:50:00,
2013-05-08 18:00:00,65.8,58.0,29.85,West,259,0.0,0.0,76,0.00,,,0.06,Wunderground v.1.15,2013-05-08 23:00:00,
2013-05-08 18:10:00,65.6,58.2,29.85,West,259,0.0,0.0,77,0.00,,,0.06,Wunderground v.1.15,2013-05-08 23:10:00,
2013-05-08 18:20:00,65.3,58.3,29.84,West,259,0.0,0.0,78,0.00,,,0.06,Wunderground v.1.15,2013-05-08 23:20:00,
2013-05-08 18:30:00,65.2,58.5,29.85,ESE,102,0.0,0.0,79,0.00,,,0.06,Wunderground v.1.15,2013-05-08 23:30:00,
2013-05-08 18:40:00,65.0,58.7,29.85,ESE,102,0.0,0.0,80,0.00,,,0.06,Wunderground v.1.15,2013-05-08 23:40:00,
2013-05-08 18:50:00,64.7,58.4,29.85,ESE,102,0.0,0.0,80,0.00,,,0.06,Wunderground v.1.15,2013-05-08 23:50:00,
2013-05-08 19:00:00,64.5,58.5,29.85,ESE,102,0.0,0.0,81,0.00,,,0.06,Wunderground v.1.15,2013-05-09 00:00:00,
2013-05-08 19:10:00,64.2,58.6,29.85,ESE,102,0.0,0.0,82,0.00,,,0.06,Wunderground v.1.15,2013-05-09 00:10:00,
2013-05-08 19:20:00,64.0,58.7,29.85,ESE,102,0.0,0.0,83,0.00,,,0.06,Wunderground v.1.15,2013-05-09 00:20:00,
2013-05-08 19:30:00,63.9,59.0,29.84,ESE,102,0.0,0.0,84,0.00,,,0.06,Wunderground v.1.15,2013-05-09 00:30:00,
2013-05-08 19:40:00,63.7,58.8,29.84,ESE,102,0.0,0.0,84,0.00,,,0.06,Wunderground v.1.15,2013-05-09 00:40:00,
2013-05-08 19:50:00,63.2,58.6,29.84,ESE,102,0.0,0.0,85,0.00,,,0.06,Wunderground v.1.15,2013-05-09 00:50:00,
2013-05-08 20:00:00,62.9,58.3,29.84,ESE,102,0.0,0.0,85,0.00,,,0.06,Wunderground v.1.15,2013-05-09 01:00:00,
2013-05-08 20:10:00,62.6,58.4,29.84,ESE,102,0.0,0.0,86,0.00,,,0.06,Wunderground v.1.15,2013-05-09 01:10:00,
2013-05-08 20:20:00,62.4,58.2,29.84,ESE,102,0.0,0.0,86,0.00,,,0.06,Wunderground v.1.15,2013-05-09 01:20:00,
2013-05-08 20:30:00,62.3,58.1,29.84,ESE,102,0.0,0.0,86,0.00,,,0.06,Wunderground v.1.15,2013-05-09 01:30:00,
2013-05-08 20:40:00,62.3,58.4,29.84,ESE,102,0.0,0.0,87,0.00,,,0.06,Wunderground v.1.15,2013-05-09 01:40:00,
2013-05-08 20:50:00,62.1,58.2,29.84,East,101,0.0,0.0,87,0.00,,,0.06,Wunderground v.1.15,2013-05-09 01:50:00,
2013-05-08 21:00:00,62.1,58.5,29.84,ESE,102,0.0,0.0,88,0.00,,,0.06,Wunderground v.1.15,2013-05-09 02:00:00,
2013-05-08 21:10:00,62.0,58.4,29.84,ESE,102,0.0,0.0,88,0.00,,,0.06,Wunderground v.1.15,2013-05-09 02:10:00,
2013-05-08 21:20:00,62.0,58.4,29.84,ESE,102,0.0,0.0,88,0.00,,,0.06,Wunderground v.1.15,2013-05-09 02:20:00,
2013-05-08 21:30:00,61.8,58.5,29.84,East,86,0.0,0.0,89,0.00,,,0.06,Wunderground v.1.15,2013-05-09 02:30:00,
2013-05-08 21:40:00,61.8,58.5,29.84,East,86,0.0,0.0,89,0.00,,,0.06,Wunderground v.1.15,2013-05-09 02:40:00,
2013-05-08 21:50:00,61.6,58.3,29.83,East,86,0.0,0.0,89,0.00,,,0.06,Wunderground v.1.15,2013-05-09 02:50:00,
2013-05-08 22:00:00,61.5,58.2,29.83,East,86,0.0,0.0,89,0.00,,,0.06,Wunderground v.1.15,2013-05-09 03:00:00,
2013-05-08 22:10:00,61.2,57.9,29.83,East,86,0.0,0.0,89,0.00,,,0.06,Wunderground v.1.15,2013-05-09 03:10:00,
2013-05-08 22:20:00,61.0,57.7,29.83,East,86,0.0,0.0,89,0.00,,,0.06,Wunderground v.1.15,2013-05-09 03:20:00,
2013-05-08 22:30:00,60.9,57.6,29.83,East,86,0.0,0.0,89,0.00,,,0.06,Wunderground v.1.15,2013-05-09 03:30:00,
2013-05-08 22:40:00,60.7,57.4,29.83,East,86,0.0,0.0,89,0.00,,,0.06,Wunderground v.1.15,2013-05-09 03:40:00,
2013-05-08 22:50:00,60.7,57.4,29.84,East,86,0.0,0.0,89,0.00,,,0.06,Wunderground v.1.15,2013-05-09 03:50:00,
2013-05-08 23:00:00,60.9,57.6,29.84,East,88,0.0,0.0,89,0.00,,,0.06,Wunderground v.1.15,2013-05-09 04:00:00,
2013-05-08 23:10:00,60.9,57.6,29.84,East,88,0.0,0.0,89,0.00,,,0.06,Wunderground v.1.15,2013-05-09 04:10:00,
2013-05-08 23:20:00,60.9,57.6,29.83,East,88,0.0,0.0,89,0.00,,,0.06,Wunderground v.1.15,2013-05-09 04:20:00,
2013-05-08 23:30:00,60.9,57.9,29.83,East,88,0.0,0.0,90,0.00,,,0.06,Wunderground v.1.15,2013-05-09 04:30:00,
2013-05-08 23:40:00,60.9,57.9,29.83,East,88,0.0,0.0,90,0.00,,,0.06,Wunderground v.1.15,2013-05-09 04:40:00,
2013-05-08 23:50:00,60.7,57.7,29.81,SE,146,0.0,0.0,90,0.00,,,0.06,Wunderground v.1.15,2013-05-09 04:50:00,